<?xml version="1.0" encoding="UTF-8" standalone="no" ?>
<gpx xmlns="http://www.topografix.com/GPX/1/1" xmlns:xsi="http://www.w3.org/2001/XMLSchema-instance" xsi:schemaLocation="http://www.topografix.com/GPX/1/1 http://www.topografix.com/GPX/1/1/gpx.xsd" version="1.1" creator="VisuGPX - https://www.visugpx.com">
  <metadata>
    <name>Le Lac Achard et le Plateau de l'Arselle à partir de la Croisette</name>
  </metadata>
  <wpt lat="45.11226" lon="5.87857">
    <ele>1780</ele>
    <name><![CDATA[La Croisette]]></name>
  </wpt>
  <wpt lat="45.11023" lon="5.88313">
    <ele>1829</ele>
    <name><![CDATA[Réserve d'eau]]></name>
  </wpt>
  <wpt lat="45.11209" lon="5.89245">
    <ele>1932</ele>
    <name><![CDATA[A droite (panneau Achard n°15)]]></name>
  </wpt>
  <wpt lat="45.11522" lon="5.90195">
    <ele>1920</ele>
    <name><![CDATA[bout du lac]]></name>
  </wpt>
  <wpt lat="45.11098" lon="5.9012">
    <ele>1910</ele>
    <name><![CDATA[phot montagnedepart  vers l arseille]]></name>
  </wpt>
  <wpt lat="45.10523" lon="5.89348">
    <ele>1723</ele>
    <name><![CDATA[A gauche sur la piste de l'Astragale]]></name>
  </wpt>
  <wpt lat="45.10319" lon="5.89207">
    <ele>1687</ele>
    <name><![CDATA[Cairn]]></name>
  </wpt>
  <wpt lat="45.10143" lon="5.88516">
    <ele>1647</ele>
    <name><![CDATA[A gauche sur la piste de la Salinière]]></name>
  </wpt>
  <wpt lat="45.10135" lon="5.8847">
    <ele>1647</ele>
    <name><![CDATA[Piste de la Salinière]]></name>
  </wpt>
  <wpt lat="45.09504" lon="5.88249">
    <ele>1609</ele>
    <name><![CDATA[Barrières]]></name>
  </wpt>
  <wpt lat="45.09431" lon="5.88157">
    <ele>1599</ele>
    <name><![CDATA[Barriere cassée (panorama) ]]></name>
  </wpt>
  <wpt lat="45.09504" lon="5.88045">
    <ele>1607</ele>
    <name><![CDATA[Intersection - Ruisseau]]></name>
  </wpt>
  <wpt lat="45.09396" lon="5.88016">
    <ele>1602</ele>
    <name><![CDATA[tout droit au panneau]]></name>
  </wpt>
  <wpt lat="45.0935" lon="5.87994">
    <ele>1605</ele>
    <name><![CDATA[Tout droit au panneau]]></name>
  </wpt>
  <wpt lat="45.09259" lon="5.87878">
    <ele>1599</ele>
    <name><![CDATA[Piste caillouteuse]]></name>
  </wpt>
  <wpt lat="45.09186" lon="5.87576">
    <ele>1625</ele>
    <name><![CDATA[Intersection]]></name>
  </wpt>
  <wpt lat="45.0905" lon="5.87129">
    <ele>1606</ele>
    <name><![CDATA[Intersection]]></name>
  </wpt>
  <wpt lat="45.09753" lon="5.87247">
    <ele>1620</ele>
    <name><![CDATA[Croisement - Piste]]></name>
  </wpt>
  <wpt lat="45.09963" lon="5.86759">
    <ele>1610</ele>
    <name><![CDATA[Route forestière de Prémol]]></name>
  </wpt>
  <wpt lat="45.11575" lon="5.87165">
    <ele>1661</ele>
    <name><![CDATA[Épingle vers la droite]]></name>
  </wpt>
  <wpt lat="45.11162" lon="5.87444">
    <ele>1710</ele>
    <name><![CDATA[Traversée de la D111]]></name>
  </wpt>
  <wpt lat="45.11224" lon="5.87857">
    <ele>1780</ele>
    <name><![CDATA[La Croisette]]></name>
  </wpt>
  <trk>
    <name><![CDATA[Le Lac Achard et le Plateau de l'Arselle à partir de la Croisette]]></name>
    <trkseg>
      <trkpt lat="45.11226" lon="5.87857">
        <ele>1780</ele>
        <time>2021-08-11T13:55:58+02:00</time>
      </trkpt>
      <trkpt lat="45.11226" lon="5.87867">
        <ele>1780</ele>
      </trkpt>
      <trkpt lat="45.11226" lon="5.87888">
        <ele>1781</ele>
      </trkpt>
      <trkpt lat="45.11227" lon="5.87903">
        <ele>1782</ele>
      </trkpt>
      <trkpt lat="45.11226" lon="5.87919">
        <ele>1783</ele>
      </trkpt>
      <trkpt lat="45.11226" lon="5.87941">
        <ele>1785</ele>
      </trkpt>
      <trkpt lat="45.11225" lon="5.87958">
        <ele>1786</ele>
      </trkpt>
      <trkpt lat="45.11223" lon="5.87981">
        <ele>1787</ele>
      </trkpt>
      <trkpt lat="45.11225" lon="5.88001">
        <ele>1788</ele>
        <time>2021-08-11T13:56:14+02:00</time>
      </trkpt>
      <trkpt lat="45.11222" lon="5.88021">
        <ele>1790</ele>
        <time>2021-08-11T13:56:31+02:00</time>
      </trkpt>
      <trkpt lat="45.1122" lon="5.88044">
        <ele>1793</ele>
        <time>2021-08-11T13:56:41+02:00</time>
      </trkpt>
      <trkpt lat="45.11215" lon="5.88061">
        <ele>1796</ele>
        <time>2021-08-11T13:56:53+02:00</time>
      </trkpt>
      <trkpt lat="45.11202" lon="5.88069">
        <ele>1797</ele>
        <time>2021-08-11T13:57:04+02:00</time>
      </trkpt>
      <trkpt lat="45.11188" lon="5.88072">
        <ele>1797</ele>
        <time>2021-08-11T13:57:16+02:00</time>
      </trkpt>
      <trkpt lat="45.11175" lon="5.88069">
        <ele>1797</ele>
        <time>2021-08-11T13:57:29+02:00</time>
      </trkpt>
      <trkpt lat="45.11161" lon="5.88067">
        <ele>1797</ele>
        <time>2021-08-11T13:57:41+02:00</time>
      </trkpt>
      <trkpt lat="45.11147" lon="5.88075">
        <ele>1799</ele>
        <time>2021-08-11T13:57:54+02:00</time>
      </trkpt>
      <trkpt lat="45.11141" lon="5.88086">
        <ele>1801</ele>
      </trkpt>
      <trkpt lat="45.11142" lon="5.88093">
        <ele>1802</ele>
        <time>2021-08-11T13:58:08+02:00</time>
      </trkpt>
      <trkpt lat="45.11144" lon="5.88108">
        <ele>1804</ele>
        <time>2021-08-11T13:58:21+02:00</time>
      </trkpt>
      <trkpt lat="45.11148" lon="5.88128">
        <ele>1806</ele>
        <time>2021-08-11T13:58:33+02:00</time>
      </trkpt>
      <trkpt lat="45.1115" lon="5.88151">
        <ele>1809</ele>
        <time>2021-08-11T13:58:48+02:00</time>
      </trkpt>
      <trkpt lat="45.11147" lon="5.88162">
        <ele>1809</ele>
      </trkpt>
      <trkpt lat="45.11139" lon="5.88174">
        <ele>1810</ele>
        <time>2021-08-11T13:59:05+02:00</time>
      </trkpt>
      <trkpt lat="45.11127" lon="5.88187">
        <ele>1813</ele>
        <time>2021-08-11T13:59:17+02:00</time>
      </trkpt>
      <trkpt lat="45.11115" lon="5.88197">
        <ele>1815</ele>
        <time>2021-08-11T13:59:30+02:00</time>
      </trkpt>
      <trkpt lat="45.11108" lon="5.88214">
        <ele>1817</ele>
        <time>2021-08-11T13:59:43+02:00</time>
      </trkpt>
      <trkpt lat="45.111" lon="5.88231">
        <ele>1819</ele>
        <time>2021-08-11T13:59:58+02:00</time>
      </trkpt>
      <trkpt lat="45.11092" lon="5.88246">
        <ele>1821</ele>
        <time>2021-08-11T14:00:14+02:00</time>
      </trkpt>
      <trkpt lat="45.11084" lon="5.88262">
        <ele>1824</ele>
        <time>2021-08-11T14:00:31+02:00</time>
      </trkpt>
      <trkpt lat="45.11072" lon="5.8828">
        <ele>1827</ele>
        <time>2021-08-11T14:02:43+02:00</time>
      </trkpt>
      <trkpt lat="45.11063" lon="5.88295">
        <ele>1828</ele>
        <time>2021-08-11T14:02:54+02:00</time>
      </trkpt>
      <trkpt lat="45.11051" lon="5.88307">
        <ele>1828</ele>
        <time>2021-08-11T14:03:05+02:00</time>
      </trkpt>
      <trkpt lat="45.11037" lon="5.88314">
        <ele>1829</ele>
        <time>2021-08-11T14:03:15+02:00</time>
      </trkpt>
      <trkpt lat="45.11023" lon="5.88313">
        <ele>1829</ele>
        <time>2021-08-11T14:03:33+02:00</time>
      </trkpt>
      <trkpt lat="45.1101" lon="5.88303">
        <ele>1828</ele>
        <time>2021-08-11T14:03:43+02:00</time>
      </trkpt>
      <trkpt lat="45.11" lon="5.88286">
        <ele>1828</ele>
        <time>2021-08-11T14:03:58+02:00</time>
      </trkpt>
      <trkpt lat="45.1099" lon="5.88271">
        <ele>1827</ele>
        <time>2021-08-11T14:04:11+02:00</time>
      </trkpt>
      <trkpt lat="45.10982" lon="5.88254">
        <ele>1826</ele>
        <time>2021-08-11T14:04:24+02:00</time>
      </trkpt>
      <trkpt lat="45.10977" lon="5.88237">
        <ele>1825</ele>
        <time>2021-08-11T14:04:34+02:00</time>
      </trkpt>
      <trkpt lat="45.10976" lon="5.8822">
        <ele>1824</ele>
        <time>2021-08-11T14:04:49+02:00</time>
      </trkpt>
      <trkpt lat="45.10978" lon="5.88197">
        <ele>1822</ele>
        <time>2021-08-11T14:05:01+02:00</time>
      </trkpt>
      <trkpt lat="45.10983" lon="5.88177">
        <ele>1820</ele>
        <time>2021-08-11T14:05:13+02:00</time>
      </trkpt>
      <trkpt lat="45.10988" lon="5.88158">
        <ele>1819</ele>
        <time>2021-08-11T14:05:24+02:00</time>
      </trkpt>
      <trkpt lat="45.10996" lon="5.88141">
        <ele>1816</ele>
        <time>2021-08-11T14:05:35+02:00</time>
      </trkpt>
      <trkpt lat="45.11009" lon="5.88129">
        <ele>1816</ele>
        <time>2021-08-11T14:05:48+02:00</time>
      </trkpt>
      <trkpt lat="45.11021" lon="5.88119">
        <ele>1817</ele>
        <time>2021-08-11T14:06:03+02:00</time>
      </trkpt>
      <trkpt lat="45.11035" lon="5.88118">
        <ele>1818</ele>
        <time>2021-08-11T14:06:14+02:00</time>
      </trkpt>
      <trkpt lat="45.11049" lon="5.88119">
        <ele>1820</ele>
        <time>2021-08-11T14:06:30+02:00</time>
      </trkpt>
      <trkpt lat="45.11063" lon="5.88123">
        <ele>1820</ele>
        <time>2021-08-11T14:06:44+02:00</time>
      </trkpt>
      <trkpt lat="45.1105" lon="5.88114">
        <ele>1820</ele>
        <time>2021-08-11T14:07:19+02:00</time>
      </trkpt>
      <trkpt lat="45.11035" lon="5.88114">
        <ele>1818</ele>
        <time>2021-08-11T14:07:32+02:00</time>
      </trkpt>
      <trkpt lat="45.11021" lon="5.88114">
        <ele>1816</ele>
        <time>2021-08-11T14:07:42+02:00</time>
      </trkpt>
      <trkpt lat="45.11008" lon="5.88123">
        <ele>1816</ele>
        <time>2021-08-11T14:07:52+02:00</time>
      </trkpt>
      <trkpt lat="45.10997" lon="5.88136">
        <ele>1816</ele>
        <time>2021-08-11T14:08:05+02:00</time>
      </trkpt>
      <trkpt lat="45.10988" lon="5.88151">
        <ele>1818</ele>
        <time>2021-08-11T14:08:16+02:00</time>
      </trkpt>
      <trkpt lat="45.10982" lon="5.88169">
        <ele>1820</ele>
        <time>2021-08-11T14:08:27+02:00</time>
      </trkpt>
      <trkpt lat="45.10977" lon="5.88188">
        <ele>1821</ele>
        <time>2021-08-11T14:08:38+02:00</time>
      </trkpt>
      <trkpt lat="45.10974" lon="5.88206">
        <ele>1823</ele>
        <time>2021-08-11T14:08:52+02:00</time>
      </trkpt>
      <trkpt lat="45.10974" lon="5.88227">
        <ele>1824</ele>
        <time>2021-08-11T14:09:02+02:00</time>
      </trkpt>
      <trkpt lat="45.10973" lon="5.88246">
        <ele>1826</ele>
        <time>2021-08-11T14:09:17+02:00</time>
      </trkpt>
      <trkpt lat="45.10977" lon="5.88265">
        <ele>1827</ele>
        <time>2021-08-11T14:09:28+02:00</time>
      </trkpt>
      <trkpt lat="45.10983" lon="5.88282">
        <ele>1828</ele>
        <time>2021-08-11T14:09:42+02:00</time>
      </trkpt>
      <trkpt lat="45.10991" lon="5.883">
        <ele>1829</ele>
        <time>2021-08-11T14:09:53+02:00</time>
      </trkpt>
      <trkpt lat="45.10999" lon="5.88317">
        <ele>1831</ele>
        <time>2021-08-11T14:10:04+02:00</time>
      </trkpt>
      <trkpt lat="45.11007" lon="5.88333">
        <ele>1832</ele>
        <time>2021-08-11T14:10:16+02:00</time>
      </trkpt>
      <trkpt lat="45.11016" lon="5.8835">
        <ele>1834</ele>
        <time>2021-08-11T14:10:35+02:00</time>
      </trkpt>
      <trkpt lat="45.11021" lon="5.88368">
        <ele>1835</ele>
        <time>2021-08-11T14:10:48+02:00</time>
      </trkpt>
      <trkpt lat="45.11026" lon="5.88386">
        <ele>1837</ele>
        <time>2021-08-11T14:10:59+02:00</time>
      </trkpt>
      <trkpt lat="45.11023" lon="5.88405">
        <ele>1840</ele>
        <time>2021-08-11T14:11:12+02:00</time>
      </trkpt>
      <trkpt lat="45.11022" lon="5.88425">
        <ele>1843</ele>
        <time>2021-08-11T14:11:27+02:00</time>
      </trkpt>
      <trkpt lat="45.11016" lon="5.88442">
        <ele>1845</ele>
        <time>2021-08-11T14:11:38+02:00</time>
      </trkpt>
      <trkpt lat="45.11009" lon="5.88459">
        <ele>1845</ele>
        <time>2021-08-11T14:11:50+02:00</time>
      </trkpt>
      <trkpt lat="45.10998" lon="5.88472">
        <ele>1845</ele>
        <time>2021-08-11T14:12:05+02:00</time>
      </trkpt>
      <trkpt lat="45.10988" lon="5.88486">
        <ele>1845</ele>
        <time>2021-08-11T14:12:30+02:00</time>
      </trkpt>
      <trkpt lat="45.10983" lon="5.88505">
        <ele>1846</ele>
        <time>2021-08-11T14:12:41+02:00</time>
      </trkpt>
      <trkpt lat="45.10979" lon="5.88521">
        <ele>1846</ele>
        <time>2021-08-11T14:12:54+02:00</time>
      </trkpt>
      <trkpt lat="45.1098" lon="5.88538">
        <ele>1847</ele>
        <time>2021-08-11T14:13:07+02:00</time>
      </trkpt>
      <trkpt lat="45.10978" lon="5.88558">
        <ele>1846</ele>
        <time>2021-08-11T14:13:23+02:00</time>
      </trkpt>
      <trkpt lat="45.10977" lon="5.88578">
        <ele>1847</ele>
        <time>2021-08-11T14:13:36+02:00</time>
      </trkpt>
      <trkpt lat="45.10982" lon="5.88596">
        <ele>1849</ele>
        <time>2021-08-11T14:13:48+02:00</time>
      </trkpt>
      <trkpt lat="45.10976" lon="5.88614">
        <ele>1849</ele>
        <time>2021-08-11T14:14:05+02:00</time>
      </trkpt>
      <trkpt lat="45.10969" lon="5.88631">
        <ele>1849</ele>
        <time>2021-08-11T14:14:18+02:00</time>
      </trkpt>
      <trkpt lat="45.10966" lon="5.88651">
        <ele>1850</ele>
        <time>2021-08-11T14:14:31+02:00</time>
      </trkpt>
      <trkpt lat="45.10968" lon="5.8867">
        <ele>1851</ele>
        <time>2021-08-11T14:14:43+02:00</time>
      </trkpt>
      <trkpt lat="45.10973" lon="5.88688">
        <ele>1854</ele>
        <time>2021-08-11T14:14:54+02:00</time>
      </trkpt>
      <trkpt lat="45.10977" lon="5.88733">
        <ele>1859</ele>
        <time>2021-08-11T14:15:15+02:00</time>
      </trkpt>
      <trkpt lat="45.10977" lon="5.88755">
        <ele>1861</ele>
        <time>2021-08-11T14:15:43+02:00</time>
      </trkpt>
      <trkpt lat="45.10983" lon="5.88771">
        <ele>1863</ele>
        <time>2021-08-11T14:15:57+02:00</time>
      </trkpt>
      <trkpt lat="45.10989" lon="5.88802">
        <ele>1868</ele>
      </trkpt>
      <trkpt lat="45.11004" lon="5.88824">
        <ele>1876</ele>
        <time>2021-08-11T14:16:27+02:00</time>
      </trkpt>
      <trkpt lat="45.11018" lon="5.88853">
        <ele>1885</ele>
        <time>2021-08-11T14:17:24+02:00</time>
      </trkpt>
      <trkpt lat="45.11024" lon="5.88869">
        <ele>1890</ele>
        <time>2021-08-11T14:17:46+02:00</time>
      </trkpt>
      <trkpt lat="45.11034" lon="5.88884">
        <ele>1894</ele>
        <time>2021-08-11T14:18:10+02:00</time>
      </trkpt>
      <trkpt lat="45.11037" lon="5.88903">
        <ele>1899</ele>
        <time>2021-08-11T14:18:37+02:00</time>
      </trkpt>
      <trkpt lat="45.11045" lon="5.88919">
        <ele>1904</ele>
        <time>2021-08-11T14:19:03+02:00</time>
      </trkpt>
      <trkpt lat="45.11051" lon="5.88937">
        <ele>1908</ele>
        <time>2021-08-11T14:19:30+02:00</time>
      </trkpt>
      <trkpt lat="45.11052" lon="5.88957">
        <ele>1910</ele>
        <time>2021-08-11T14:19:49+02:00</time>
      </trkpt>
      <trkpt lat="45.11057" lon="5.88976">
        <ele>1912</ele>
        <time>2021-08-11T14:20:06+02:00</time>
      </trkpt>
      <trkpt lat="45.11065" lon="5.88993">
        <ele>1912</ele>
        <time>2021-08-11T14:20:21+02:00</time>
      </trkpt>
      <trkpt lat="45.11077" lon="5.89003">
        <ele>1913</ele>
        <time>2021-08-11T14:20:31+02:00</time>
      </trkpt>
      <trkpt lat="45.11083" lon="5.89021">
        <ele>1912</ele>
        <time>2021-08-11T14:20:49+02:00</time>
      </trkpt>
      <trkpt lat="45.11095" lon="5.89037">
        <ele>1910</ele>
        <time>2021-08-11T14:21:06+02:00</time>
      </trkpt>
      <trkpt lat="45.11105" lon="5.89044">
        <ele>1910</ele>
        <time>2021-08-11T14:21:14+02:00</time>
      </trkpt>
      <trkpt lat="45.11122" lon="5.89053">
        <ele>1911</ele>
        <time>2021-08-11T14:21:29+02:00</time>
      </trkpt>
      <trkpt lat="45.11132" lon="5.89064">
        <ele>1909</ele>
        <time>2021-08-11T14:21:45+02:00</time>
      </trkpt>
      <trkpt lat="45.11142" lon="5.89077">
        <ele>1909</ele>
        <time>2021-08-11T14:22:03+02:00</time>
      </trkpt>
      <trkpt lat="45.1115" lon="5.89101">
        <ele>1909</ele>
        <time>2021-08-11T14:22:09+02:00</time>
      </trkpt>
      <trkpt lat="45.1116" lon="5.89116">
        <ele>1912</ele>
        <time>2021-08-11T14:22:13+02:00</time>
      </trkpt>
      <trkpt lat="45.11164" lon="5.89129">
        <ele>1914</ele>
        <time>2021-08-11T14:22:49+02:00</time>
      </trkpt>
      <trkpt lat="45.11173" lon="5.89143">
        <ele>1918</ele>
        <time>2021-08-11T14:23:07+02:00</time>
      </trkpt>
      <trkpt lat="45.1118" lon="5.89159">
        <ele>1921</ele>
        <time>2021-08-11T14:23:31+02:00</time>
      </trkpt>
      <trkpt lat="45.11183" lon="5.89179">
        <ele>1922</ele>
        <time>2021-08-11T14:23:49+02:00</time>
      </trkpt>
      <trkpt lat="45.11191" lon="5.89192">
        <ele>1926</ele>
        <time>2021-08-11T14:24:06+02:00</time>
      </trkpt>
      <trkpt lat="45.11199" lon="5.89208">
        <ele>1929</ele>
        <time>2021-08-11T14:24:25+02:00</time>
      </trkpt>
      <trkpt lat="45.11208" lon="5.89225">
        <ele>1932</ele>
        <time>2021-08-11T14:24:47+02:00</time>
      </trkpt>
      <trkpt lat="45.11209" lon="5.89245">
        <ele>1932</ele>
        <time>2021-08-11T14:25:18+02:00</time>
      </trkpt>
      <trkpt lat="45.11199" lon="5.89258">
        <ele>1929</ele>
        <time>2021-08-11T14:27:13+02:00</time>
      </trkpt>
      <trkpt lat="45.11194" lon="5.89278">
        <ele>1929</ele>
        <time>2021-08-11T14:27:27+02:00</time>
      </trkpt>
      <trkpt lat="45.11184" lon="5.89293">
        <ele>1927</ele>
        <time>2021-08-11T14:27:43+02:00</time>
      </trkpt>
      <trkpt lat="45.11184" lon="5.89311">
        <ele>1930</ele>
        <time>2021-08-11T14:28:11+02:00</time>
      </trkpt>
      <trkpt lat="45.11178" lon="5.89325">
        <ele>1930</ele>
        <time>2021-08-11T14:28:26+02:00</time>
      </trkpt>
      <trkpt lat="45.11173" lon="5.89343">
        <ele>1931</ele>
        <time>2021-08-11T14:28:44+02:00</time>
      </trkpt>
      <trkpt lat="45.11169" lon="5.89359">
        <ele>1931</ele>
        <time>2021-08-11T14:29:11+02:00</time>
      </trkpt>
      <trkpt lat="45.11164" lon="5.8938">
        <ele>1930</ele>
        <time>2021-08-11T14:29:34+02:00</time>
      </trkpt>
      <trkpt lat="45.11158" lon="5.89394">
        <ele>1929</ele>
        <time>2021-08-11T14:29:46+02:00</time>
      </trkpt>
      <trkpt lat="45.11152" lon="5.89409">
        <ele>1930</ele>
        <time>2021-08-11T14:29:55+02:00</time>
      </trkpt>
      <trkpt lat="45.11145" lon="5.89427">
        <ele>1931</ele>
        <time>2021-08-11T14:30:09+02:00</time>
      </trkpt>
      <trkpt lat="45.11143" lon="5.89448">
        <ele>1934</ele>
        <time>2021-08-11T14:30:21+02:00</time>
      </trkpt>
      <trkpt lat="45.11145" lon="5.89468">
        <ele>1938</ele>
        <time>2021-08-11T14:30:38+02:00</time>
      </trkpt>
      <trkpt lat="45.11153" lon="5.89486">
        <ele>1941</ele>
        <time>2021-08-11T14:30:49+02:00</time>
      </trkpt>
      <trkpt lat="45.11156" lon="5.89505">
        <ele>1943</ele>
        <time>2021-08-11T14:31:12+02:00</time>
      </trkpt>
      <trkpt lat="45.11151" lon="5.89522">
        <ele>1942</ele>
        <time>2021-08-11T14:31:49+02:00</time>
      </trkpt>
      <trkpt lat="45.11149" lon="5.89541">
        <ele>1941</ele>
        <time>2021-08-11T14:32:14+02:00</time>
      </trkpt>
      <trkpt lat="45.11142" lon="5.89557">
        <ele>1937</ele>
        <time>2021-08-11T14:32:30+02:00</time>
      </trkpt>
      <trkpt lat="45.11137" lon="5.89575">
        <ele>1935</ele>
        <time>2021-08-11T14:32:47+02:00</time>
      </trkpt>
      <trkpt lat="45.11131" lon="5.89585">
        <ele>1934</ele>
        <time>2021-08-11T14:33:02+02:00</time>
      </trkpt>
      <trkpt lat="45.1113" lon="5.89602">
        <ele>1935</ele>
        <time>2021-08-11T14:33:22+02:00</time>
      </trkpt>
      <trkpt lat="45.11134" lon="5.89622">
        <ele>1934</ele>
        <time>2021-08-11T14:33:42+02:00</time>
      </trkpt>
      <trkpt lat="45.11132" lon="5.89637">
        <ele>1932</ele>
        <time>2021-08-11T14:33:58+02:00</time>
      </trkpt>
      <trkpt lat="45.11132" lon="5.89659">
        <ele>1931</ele>
        <time>2021-08-11T14:34:12+02:00</time>
      </trkpt>
      <trkpt lat="45.1113" lon="5.89677">
        <ele>1928</ele>
        <time>2021-08-11T14:34:37+02:00</time>
      </trkpt>
      <trkpt lat="45.11124" lon="5.89695">
        <ele>1925</ele>
        <time>2021-08-11T14:35:01+02:00</time>
      </trkpt>
      <trkpt lat="45.1112" lon="5.89715">
        <ele>1922</ele>
        <time>2021-08-11T14:35:21+02:00</time>
      </trkpt>
      <trkpt lat="45.11117" lon="5.89735">
        <ele>1921</ele>
        <time>2021-08-11T14:35:38+02:00</time>
      </trkpt>
      <trkpt lat="45.11113" lon="5.89753">
        <ele>1920</ele>
        <time>2021-08-11T14:35:50+02:00</time>
      </trkpt>
      <trkpt lat="45.11108" lon="5.89773">
        <ele>1919</ele>
        <time>2021-08-11T14:36:13+02:00</time>
      </trkpt>
      <trkpt lat="45.11105" lon="5.89792">
        <ele>1917</ele>
        <time>2021-08-11T14:36:34+02:00</time>
      </trkpt>
      <trkpt lat="45.11107" lon="5.89813">
        <ele>1917</ele>
        <time>2021-08-11T14:37:01+02:00</time>
      </trkpt>
      <trkpt lat="45.11109" lon="5.89831">
        <ele>1917</ele>
        <time>2021-08-11T14:37:10+02:00</time>
      </trkpt>
      <trkpt lat="45.11114" lon="5.8985">
        <ele>1919</ele>
        <time>2021-08-11T14:37:20+02:00</time>
      </trkpt>
      <trkpt lat="45.11119" lon="5.89868">
        <ele>1918</ele>
        <time>2021-08-11T14:37:38+02:00</time>
      </trkpt>
      <trkpt lat="45.11113" lon="5.89885">
        <ele>1914</ele>
        <time>2021-08-11T14:37:55+02:00</time>
      </trkpt>
      <trkpt lat="45.11116" lon="5.89905">
        <ele>1912</ele>
        <time>2021-08-11T14:38:14+02:00</time>
      </trkpt>
      <trkpt lat="45.11125" lon="5.89921">
        <ele>1913</ele>
        <time>2021-08-11T14:38:25+02:00</time>
      </trkpt>
      <trkpt lat="45.11134" lon="5.89937">
        <ele>1913</ele>
        <time>2021-08-11T14:38:40+02:00</time>
      </trkpt>
      <trkpt lat="45.11148" lon="5.89944">
        <ele>1914</ele>
        <time>2021-08-11T14:38:52+02:00</time>
      </trkpt>
      <trkpt lat="45.11161" lon="5.89952">
        <ele>1915</ele>
        <time>2021-08-11T14:39:06+02:00</time>
      </trkpt>
      <trkpt lat="45.11175" lon="5.89967">
        <ele>1916</ele>
        <time>2021-08-11T14:39:25+02:00</time>
      </trkpt>
      <trkpt lat="45.11183" lon="5.89982">
        <ele>1915</ele>
        <time>2021-08-11T14:39:47+02:00</time>
      </trkpt>
      <trkpt lat="45.11189" lon="5.89995">
        <ele>1914</ele>
        <time>2021-08-11T14:40:05+02:00</time>
      </trkpt>
      <trkpt lat="45.11201" lon="5.90005">
        <ele>1915</ele>
        <time>2021-08-11T14:40:17+02:00</time>
      </trkpt>
      <trkpt lat="45.11215" lon="5.90008">
        <ele>1920</ele>
        <time>2021-08-11T14:40:29+02:00</time>
      </trkpt>
      <trkpt lat="45.11228" lon="5.90013">
        <ele>1924</ele>
        <time>2021-08-11T14:40:45+02:00</time>
      </trkpt>
      <trkpt lat="45.1124" lon="5.90025">
        <ele>1925</ele>
        <time>2021-08-11T14:40:59+02:00</time>
      </trkpt>
      <trkpt lat="45.11251" lon="5.90037">
        <ele>1926</ele>
        <time>2021-08-11T14:41:24+02:00</time>
      </trkpt>
      <trkpt lat="45.11256" lon="5.90056">
        <ele>1923</ele>
        <time>2021-08-11T14:41:38+02:00</time>
      </trkpt>
      <trkpt lat="45.11261" lon="5.90074">
        <ele>1921</ele>
        <time>2021-08-11T14:41:51+02:00</time>
      </trkpt>
      <trkpt lat="45.11271" lon="5.9009">
        <ele>1921</ele>
        <time>2021-08-11T14:42:08+02:00</time>
      </trkpt>
      <trkpt lat="45.11277" lon="5.90108">
        <ele>1920</ele>
        <time>2021-08-11T14:42:27+02:00</time>
      </trkpt>
      <trkpt lat="45.11286" lon="5.90122">
        <ele>1920</ele>
        <time>2021-08-11T14:42:40+02:00</time>
      </trkpt>
      <trkpt lat="45.11288" lon="5.90131">
        <ele>1920</ele>
        <time>2021-08-11T14:43:06+02:00</time>
      </trkpt>
      <trkpt lat="45.11287" lon="5.90142">
        <ele>1920</ele>
        <time>2021-08-11T14:43:44+02:00</time>
      </trkpt>
      <trkpt lat="45.11288" lon="5.90152">
        <ele>1920</ele>
        <time>2021-08-11T14:48:18+02:00</time>
      </trkpt>
      <trkpt lat="45.11291" lon="5.90147">
        <ele>1920</ele>
        <time>2021-08-11T14:48:28+02:00</time>
      </trkpt>
      <trkpt lat="45.11293" lon="5.90129">
        <ele>1920</ele>
        <time>2021-08-11T14:48:51+02:00</time>
      </trkpt>
      <trkpt lat="45.11295" lon="5.90116">
        <ele>1921</ele>
        <time>2021-08-11T14:49:33+02:00</time>
      </trkpt>
      <trkpt lat="45.11303" lon="5.90101">
        <ele>1924</ele>
        <time>2021-08-11T14:49:50+02:00</time>
      </trkpt>
      <trkpt lat="45.11317" lon="5.90094">
        <ele>1925</ele>
        <time>2021-08-11T14:50:05+02:00</time>
      </trkpt>
      <trkpt lat="45.11328" lon="5.90083">
        <ele>1926</ele>
        <time>2021-08-11T14:50:19+02:00</time>
      </trkpt>
      <trkpt lat="45.11342" lon="5.9008">
        <ele>1924</ele>
        <time>2021-08-11T14:50:34+02:00</time>
      </trkpt>
      <trkpt lat="45.11355" lon="5.90085">
        <ele>1921</ele>
        <time>2021-08-11T14:50:49+02:00</time>
      </trkpt>
      <trkpt lat="45.11367" lon="5.90096">
        <ele>1920</ele>
        <time>2021-08-11T14:51:11+02:00</time>
      </trkpt>
      <trkpt lat="45.11381" lon="5.90099">
        <ele>1921</ele>
        <time>2021-08-11T14:51:30+02:00</time>
      </trkpt>
      <trkpt lat="45.11392" lon="5.9011">
        <ele>1920</ele>
        <time>2021-08-11T14:51:43+02:00</time>
      </trkpt>
      <trkpt lat="45.11405" lon="5.90117">
        <ele>1921</ele>
        <time>2021-08-11T14:52:03+02:00</time>
      </trkpt>
      <trkpt lat="45.11418" lon="5.90123">
        <ele>1921</ele>
        <time>2021-08-11T14:52:20+02:00</time>
      </trkpt>
      <trkpt lat="45.11431" lon="5.90131">
        <ele>1921</ele>
        <time>2021-08-11T14:52:31+02:00</time>
      </trkpt>
      <trkpt lat="45.11444" lon="5.90137">
        <ele>1920</ele>
        <time>2021-08-11T14:52:43+02:00</time>
      </trkpt>
      <trkpt lat="45.11458" lon="5.90132">
        <ele>1921</ele>
        <time>2021-08-11T14:53:06+02:00</time>
      </trkpt>
      <trkpt lat="45.1147" lon="5.90137">
        <ele>1921</ele>
        <time>2021-08-11T14:53:23+02:00</time>
      </trkpt>
      <trkpt lat="45.11481" lon="5.90144">
        <ele>1922</ele>
        <time>2021-08-11T14:53:40+02:00</time>
      </trkpt>
      <trkpt lat="45.11493" lon="5.90153">
        <ele>1922</ele>
        <time>2021-08-11T14:53:52+02:00</time>
      </trkpt>
      <trkpt lat="45.11504" lon="5.90166">
        <ele>1922</ele>
        <time>2021-08-11T14:54:08+02:00</time>
      </trkpt>
      <trkpt lat="45.11511" lon="5.90183">
        <ele>1921</ele>
        <time>2021-08-11T14:54:27+02:00</time>
      </trkpt>
      <trkpt lat="45.11522" lon="5.90195">
        <ele>1920</ele>
        <time>2021-08-11T14:54:41+02:00</time>
      </trkpt>
      <trkpt lat="45.11518" lon="5.90213">
        <ele>1920</ele>
        <time>2021-08-11T14:56:27+02:00</time>
      </trkpt>
      <trkpt lat="45.11507" lon="5.90222">
        <ele>1920</ele>
        <time>2021-08-11T14:56:40+02:00</time>
      </trkpt>
      <trkpt lat="45.11493" lon="5.90227">
        <ele>1920</ele>
        <time>2021-08-11T14:56:57+02:00</time>
      </trkpt>
      <trkpt lat="45.11479" lon="5.90224">
        <ele>1920</ele>
        <time>2021-08-11T14:57:15+02:00</time>
      </trkpt>
      <trkpt lat="45.11465" lon="5.90217">
        <ele>1920</ele>
        <time>2021-08-11T14:57:32+02:00</time>
      </trkpt>
      <trkpt lat="45.11453" lon="5.90207">
        <ele>1920</ele>
        <time>2021-08-11T14:57:45+02:00</time>
      </trkpt>
      <trkpt lat="45.11446" lon="5.90196">
        <ele>1920</ele>
        <time>2021-08-11T14:57:56+02:00</time>
      </trkpt>
      <trkpt lat="45.11435" lon="5.90199">
        <ele>1920</ele>
      </trkpt>
      <trkpt lat="45.11427" lon="5.90205">
        <ele>1920</ele>
        <time>2021-08-11T14:58:12+02:00</time>
      </trkpt>
      <trkpt lat="45.11415" lon="5.90214">
        <ele>1920</ele>
        <time>2021-08-11T14:58:24+02:00</time>
      </trkpt>
      <trkpt lat="45.11407" lon="5.90212">
        <ele>1920</ele>
      </trkpt>
      <trkpt lat="45.11398" lon="5.90214">
        <ele>1920</ele>
        <time>2021-08-11T14:58:42+02:00</time>
      </trkpt>
      <trkpt lat="45.11388" lon="5.90227">
        <ele>1920</ele>
        <time>2021-08-11T15:00:38+02:00</time>
      </trkpt>
      <trkpt lat="45.11378" lon="5.90232">
        <ele>1920</ele>
        <time>2021-08-11T15:01:01+02:00</time>
      </trkpt>
      <trkpt lat="45.11371" lon="5.90231">
        <ele>1920</ele>
      </trkpt>
      <trkpt lat="45.11367" lon="5.90226">
        <ele>1920</ele>
        <time>2021-08-11T15:01:17+02:00</time>
      </trkpt>
      <trkpt lat="45.11355" lon="5.90224">
        <ele>1920</ele>
        <time>2021-08-11T15:01:38+02:00</time>
      </trkpt>
      <trkpt lat="45.11341" lon="5.90226">
        <ele>1920</ele>
        <time>2021-08-11T15:02:20+02:00</time>
      </trkpt>
      <trkpt lat="45.11327" lon="5.90216">
        <ele>1920</ele>
        <time>2021-08-11T15:02:34+02:00</time>
      </trkpt>
      <trkpt lat="45.11318" lon="5.90202">
        <ele>1920</ele>
        <time>2021-08-11T15:02:49+02:00</time>
      </trkpt>
      <trkpt lat="45.11306" lon="5.90193">
        <ele>1920</ele>
        <time>2021-08-11T15:03:08+02:00</time>
      </trkpt>
      <trkpt lat="45.11295" lon="5.90181">
        <ele>1920</ele>
        <time>2021-08-11T15:03:25+02:00</time>
      </trkpt>
      <trkpt lat="45.11288" lon="5.9017">
        <ele>1920</ele>
        <time>2021-08-11T15:03:59+02:00</time>
      </trkpt>
      <trkpt lat="45.1127" lon="5.90167">
        <ele>1919</ele>
        <time>2021-08-11T15:04:19+02:00</time>
      </trkpt>
      <trkpt lat="45.11256" lon="5.90168">
        <ele>1918</ele>
        <time>2021-08-11T15:04:33+02:00</time>
      </trkpt>
      <trkpt lat="45.11242" lon="5.90174">
        <ele>1918</ele>
        <time>2021-08-11T15:04:45+02:00</time>
      </trkpt>
      <trkpt lat="45.11233" lon="5.90186">
        <ele>1919</ele>
        <time>2021-08-11T15:04:58+02:00</time>
      </trkpt>
      <trkpt lat="45.11223" lon="5.90189">
        <ele>1919</ele>
        <time>2021-08-11T15:05:13+02:00</time>
      </trkpt>
      <trkpt lat="45.11211" lon="5.90187">
        <ele>1919</ele>
        <time>2021-08-11T15:05:31+02:00</time>
      </trkpt>
      <trkpt lat="45.11199" lon="5.90179">
        <ele>1919</ele>
        <time>2021-08-11T15:05:42+02:00</time>
      </trkpt>
      <trkpt lat="45.11188" lon="5.90165">
        <ele>1918</ele>
        <time>2021-08-11T15:05:57+02:00</time>
      </trkpt>
      <trkpt lat="45.11176" lon="5.90153">
        <ele>1918</ele>
        <time>2021-08-11T15:06:09+02:00</time>
      </trkpt>
      <trkpt lat="45.11165" lon="5.90152">
        <ele>1919</ele>
        <time>2021-08-11T15:06:25+02:00</time>
      </trkpt>
      <trkpt lat="45.11152" lon="5.90145">
        <ele>1919</ele>
        <time>2021-08-11T15:06:37+02:00</time>
      </trkpt>
      <trkpt lat="45.11138" lon="5.90144">
        <ele>1919</ele>
        <time>2021-08-11T15:06:53+02:00</time>
      </trkpt>
      <trkpt lat="45.11126" lon="5.90138">
        <ele>1918</ele>
        <time>2021-08-11T15:07:07+02:00</time>
      </trkpt>
      <trkpt lat="45.11114" lon="5.90133">
        <ele>1916</ele>
        <time>2021-08-11T15:07:21+02:00</time>
      </trkpt>
      <trkpt lat="45.11106" lon="5.90126">
        <ele>1913</ele>
      </trkpt>
      <trkpt lat="45.11098" lon="5.9012">
        <ele>1910</ele>
        <time>2021-08-11T15:08:03+02:00</time>
      </trkpt>
      <trkpt lat="45.11087" lon="5.90114">
        <ele>1906</ele>
        <time>2021-08-11T15:09:39+02:00</time>
      </trkpt>
      <trkpt lat="45.1107" lon="5.90115">
        <ele>1900</ele>
        <time>2021-08-11T15:10:14+02:00</time>
      </trkpt>
      <trkpt lat="45.11059" lon="5.9011">
        <ele>1896</ele>
        <time>2021-08-11T15:10:34+02:00</time>
      </trkpt>
      <trkpt lat="45.11056" lon="5.90099">
        <ele>1894</ele>
        <time>2021-08-11T15:10:47+02:00</time>
      </trkpt>
      <trkpt lat="45.11055" lon="5.90087">
        <ele>1891</ele>
        <time>2021-08-11T15:10:59+02:00</time>
      </trkpt>
      <trkpt lat="45.11052" lon="5.90075">
        <ele>1890</ele>
      </trkpt>
      <trkpt lat="45.11045" lon="5.90067">
        <ele>1888</ele>
        <time>2021-08-11T15:11:18+02:00</time>
      </trkpt>
      <trkpt lat="45.11032" lon="5.9006">
        <ele>1887</ele>
        <time>2021-08-11T15:11:32+02:00</time>
      </trkpt>
      <trkpt lat="45.1102" lon="5.90046">
        <ele>1884</ele>
        <time>2021-08-11T15:11:56+02:00</time>
      </trkpt>
      <trkpt lat="45.11008" lon="5.90037">
        <ele>1881</ele>
        <time>2021-08-11T15:12:15+02:00</time>
      </trkpt>
      <trkpt lat="45.10999" lon="5.90022">
        <ele>1880</ele>
        <time>2021-08-11T15:12:45+02:00</time>
      </trkpt>
      <trkpt lat="45.1099" lon="5.90009">
        <ele>1881</ele>
        <time>2021-08-11T15:13:19+02:00</time>
      </trkpt>
      <trkpt lat="45.10979" lon="5.89998">
        <ele>1881</ele>
        <time>2021-08-11T15:13:33+02:00</time>
      </trkpt>
      <trkpt lat="45.10968" lon="5.89986">
        <ele>1881</ele>
        <time>2021-08-11T15:13:47+02:00</time>
      </trkpt>
      <trkpt lat="45.10954" lon="5.89981">
        <ele>1882</ele>
        <time>2021-08-11T15:14:01+02:00</time>
      </trkpt>
      <trkpt lat="45.10941" lon="5.89976">
        <ele>1882</ele>
        <time>2021-08-11T15:14:16+02:00</time>
      </trkpt>
      <trkpt lat="45.10931" lon="5.89963">
        <ele>1880</ele>
        <time>2021-08-11T15:14:28+02:00</time>
      </trkpt>
      <trkpt lat="45.10929" lon="5.89944">
        <ele>1878</ele>
        <time>2021-08-11T15:14:47+02:00</time>
      </trkpt>
      <trkpt lat="45.10922" lon="5.89927">
        <ele>1877</ele>
        <time>2021-08-11T15:15:12+02:00</time>
      </trkpt>
      <trkpt lat="45.1092" lon="5.89906">
        <ele>1875</ele>
        <time>2021-08-11T15:15:24+02:00</time>
      </trkpt>
      <trkpt lat="45.1091" lon="5.89892">
        <ele>1875</ele>
        <time>2021-08-11T15:15:39+02:00</time>
      </trkpt>
      <trkpt lat="45.10899" lon="5.89882">
        <ele>1875</ele>
        <time>2021-08-11T15:15:55+02:00</time>
      </trkpt>
      <trkpt lat="45.10901" lon="5.89863">
        <ele>1873</ele>
        <time>2021-08-11T15:16:08+02:00</time>
      </trkpt>
      <trkpt lat="45.10904" lon="5.89856">
        <ele>1872</ele>
      </trkpt>
      <trkpt lat="45.10904" lon="5.8985">
        <ele>1871</ele>
      </trkpt>
      <trkpt lat="45.10899" lon="5.89841">
        <ele>1870</ele>
        <time>2021-08-11T15:16:32+02:00</time>
      </trkpt>
      <trkpt lat="45.10888" lon="5.89827">
        <ele>1867</ele>
        <time>2021-08-11T15:16:54+02:00</time>
      </trkpt>
      <trkpt lat="45.10877" lon="5.89813">
        <ele>1865</ele>
        <time>2021-08-11T15:17:08+02:00</time>
      </trkpt>
      <trkpt lat="45.10867" lon="5.89799">
        <ele>1863</ele>
        <time>2021-08-11T15:17:29+02:00</time>
      </trkpt>
      <trkpt lat="45.10858" lon="5.89783">
        <ele>1860</ele>
        <time>2021-08-11T15:17:45+02:00</time>
      </trkpt>
      <trkpt lat="45.1085" lon="5.89767">
        <ele>1858</ele>
        <time>2021-08-11T15:17:58+02:00</time>
      </trkpt>
      <trkpt lat="45.10851" lon="5.89756">
        <ele>1855</ele>
        <time>2021-08-11T15:18:15+02:00</time>
      </trkpt>
      <trkpt lat="45.10848" lon="5.89744">
        <ele>1853</ele>
      </trkpt>
      <trkpt lat="45.10853" lon="5.89735">
        <ele>1849</ele>
        <time>2021-08-11T15:18:49+02:00</time>
      </trkpt>
      <trkpt lat="45.10854" lon="5.89716">
        <ele>1844</ele>
        <time>2021-08-11T15:19:20+02:00</time>
      </trkpt>
      <trkpt lat="45.10849" lon="5.89698">
        <ele>1841</ele>
        <time>2021-08-11T15:19:44+02:00</time>
      </trkpt>
      <trkpt lat="45.10841" lon="5.89682">
        <ele>1837</ele>
        <time>2021-08-11T15:20:06+02:00</time>
      </trkpt>
      <trkpt lat="45.10829" lon="5.89669">
        <ele>1832</ele>
        <time>2021-08-11T15:20:17+02:00</time>
      </trkpt>
      <trkpt lat="45.10816" lon="5.8967">
        <ele>1830</ele>
        <time>2021-08-11T15:20:28+02:00</time>
      </trkpt>
      <trkpt lat="45.10804" lon="5.8966">
        <ele>1826</ele>
        <time>2021-08-11T15:20:46+02:00</time>
      </trkpt>
      <trkpt lat="45.10796" lon="5.89656">
        <ele>1824</ele>
      </trkpt>
      <trkpt lat="45.10792" lon="5.8965">
        <ele>1822</ele>
        <time>2021-08-11T15:21:34+02:00</time>
      </trkpt>
      <trkpt lat="45.1078" lon="5.89639">
        <ele>1817</ele>
        <time>2021-08-11T15:21:56+02:00</time>
      </trkpt>
      <trkpt lat="45.10768" lon="5.89629">
        <ele>1814</ele>
        <time>2021-08-11T15:22:24+02:00</time>
      </trkpt>
      <trkpt lat="45.10757" lon="5.8962">
        <ele>1809</ele>
        <time>2021-08-11T15:22:39+02:00</time>
      </trkpt>
      <trkpt lat="45.10745" lon="5.89609">
        <ele>1803</ele>
        <time>2021-08-11T15:22:49+02:00</time>
      </trkpt>
      <trkpt lat="45.10734" lon="5.89597">
        <ele>1799</ele>
        <time>2021-08-11T15:23:07+02:00</time>
      </trkpt>
      <trkpt lat="45.10721" lon="5.89592">
        <ele>1795</ele>
        <time>2021-08-11T15:23:26+02:00</time>
      </trkpt>
      <trkpt lat="45.10708" lon="5.89583">
        <ele>1791</ele>
        <time>2021-08-11T15:23:43+02:00</time>
      </trkpt>
      <trkpt lat="45.10696" lon="5.89574">
        <ele>1787</ele>
        <time>2021-08-11T15:24:02+02:00</time>
      </trkpt>
      <trkpt lat="45.10684" lon="5.89564">
        <ele>1783</ele>
        <time>2021-08-11T15:24:25+02:00</time>
      </trkpt>
      <trkpt lat="45.10672" lon="5.89553">
        <ele>1777</ele>
        <time>2021-08-11T15:24:56+02:00</time>
      </trkpt>
      <trkpt lat="45.10662" lon="5.89544">
        <ele>1772</ele>
        <time>2021-08-11T15:25:18+02:00</time>
      </trkpt>
      <trkpt lat="45.10652" lon="5.89532">
        <ele>1766</ele>
        <time>2021-08-11T15:25:48+02:00</time>
      </trkpt>
      <trkpt lat="45.10643" lon="5.89514">
        <ele>1761</ele>
        <time>2021-08-11T15:26:13+02:00</time>
      </trkpt>
      <trkpt lat="45.10632" lon="5.89507">
        <ele>1757</ele>
        <time>2021-08-11T15:26:39+02:00</time>
      </trkpt>
      <trkpt lat="45.10617" lon="5.89503">
        <ele>1754</ele>
        <time>2021-08-11T15:26:53+02:00</time>
      </trkpt>
      <trkpt lat="45.10605" lon="5.89497">
        <ele>1750</ele>
        <time>2021-08-11T15:27:31+02:00</time>
      </trkpt>
      <trkpt lat="45.10594" lon="5.89485">
        <ele>1744</ele>
        <time>2021-08-11T15:28:01+02:00</time>
      </trkpt>
      <trkpt lat="45.10589" lon="5.89478">
        <ele>1741</ele>
      </trkpt>
      <trkpt lat="45.10589" lon="5.89467">
        <ele>1739</ele>
        <time>2021-08-11T15:28:21+02:00</time>
      </trkpt>
      <trkpt lat="45.10578" lon="5.89457">
        <ele>1738</ele>
        <time>2021-08-11T15:28:50+02:00</time>
      </trkpt>
      <trkpt lat="45.10565" lon="5.89448">
        <ele>1736</ele>
        <time>2021-08-11T15:29:04+02:00</time>
      </trkpt>
      <trkpt lat="45.10559" lon="5.8943">
        <ele>1734</ele>
        <time>2021-08-11T15:29:18+02:00</time>
      </trkpt>
      <trkpt lat="45.10558" lon="5.89405">
        <ele>1731</ele>
        <time>2021-08-11T15:29:32+02:00</time>
      </trkpt>
      <trkpt lat="45.10549" lon="5.89393">
        <ele>1729</ele>
        <time>2021-08-11T15:29:47+02:00</time>
      </trkpt>
      <trkpt lat="45.10542" lon="5.89389">
        <ele>1729</ele>
      </trkpt>
      <trkpt lat="45.10538" lon="5.89379">
        <ele>1728</ele>
        <time>2021-08-11T15:30:02+02:00</time>
      </trkpt>
      <trkpt lat="45.1053" lon="5.89372">
        <ele>1727</ele>
        <time>2021-08-11T15:30:17+02:00</time>
      </trkpt>
      <trkpt lat="45.10532" lon="5.89359">
        <ele>1725</ele>
      </trkpt>
      <trkpt lat="45.10523" lon="5.89348">
        <ele>1723</ele>
        <time>2021-08-11T15:30:39+02:00</time>
      </trkpt>
      <trkpt lat="45.1052" lon="5.89336">
        <ele>1721</ele>
        <time>2021-08-11T15:31:16+02:00</time>
      </trkpt>
      <trkpt lat="45.10502" lon="5.89325">
        <ele>1719</ele>
        <time>2021-08-11T15:32:01+02:00</time>
      </trkpt>
      <trkpt lat="45.10491" lon="5.89313">
        <ele>1717</ele>
        <time>2021-08-11T15:32:12+02:00</time>
      </trkpt>
      <trkpt lat="45.10483" lon="5.89303">
        <ele>1716</ele>
        <time>2021-08-11T15:32:22+02:00</time>
      </trkpt>
      <trkpt lat="45.1047" lon="5.89288">
        <ele>1714</ele>
        <time>2021-08-11T15:32:34+02:00</time>
      </trkpt>
      <trkpt lat="45.10461" lon="5.89273">
        <ele>1712</ele>
        <time>2021-08-11T15:32:50+02:00</time>
      </trkpt>
      <trkpt lat="45.10446" lon="5.89259">
        <ele>1710</ele>
        <time>2021-08-11T15:33:03+02:00</time>
      </trkpt>
      <trkpt lat="45.10437" lon="5.89249">
        <ele>1709</ele>
        <time>2021-08-11T15:33:14+02:00</time>
      </trkpt>
      <trkpt lat="45.10424" lon="5.89243">
        <ele>1709</ele>
        <time>2021-08-11T15:33:24+02:00</time>
      </trkpt>
      <trkpt lat="45.1041" lon="5.89241">
        <ele>1708</ele>
        <time>2021-08-11T15:33:35+02:00</time>
      </trkpt>
      <trkpt lat="45.10396" lon="5.89246">
        <ele>1708</ele>
        <time>2021-08-11T15:33:47+02:00</time>
      </trkpt>
      <trkpt lat="45.10381" lon="5.89245">
        <ele>1706</ele>
        <time>2021-08-11T15:33:56+02:00</time>
      </trkpt>
      <trkpt lat="45.10365" lon="5.89236">
        <ele>1701</ele>
        <time>2021-08-11T15:34:06+02:00</time>
      </trkpt>
      <trkpt lat="45.10353" lon="5.89237">
        <ele>1700</ele>
        <time>2021-08-11T15:34:17+02:00</time>
      </trkpt>
      <trkpt lat="45.10343" lon="5.89238">
        <ele>1698</ele>
      </trkpt>
      <trkpt lat="45.10338" lon="5.89234">
        <ele>1696</ele>
        <time>2021-08-11T15:34:30+02:00</time>
      </trkpt>
      <trkpt lat="45.10332" lon="5.89217">
        <ele>1691</ele>
        <time>2021-08-11T15:34:42+02:00</time>
      </trkpt>
      <trkpt lat="45.10319" lon="5.89207">
        <ele>1687</ele>
        <time>2021-08-11T15:35:04+02:00</time>
      </trkpt>
      <trkpt lat="45.10303" lon="5.89184">
        <ele>1683</ele>
        <time>2021-08-11T15:35:22+02:00</time>
      </trkpt>
      <trkpt lat="45.10302" lon="5.8916">
        <ele>1681</ele>
        <time>2021-08-11T15:35:29+02:00</time>
      </trkpt>
      <trkpt lat="45.10297" lon="5.89147">
        <ele>1679</ele>
        <time>2021-08-11T15:35:45+02:00</time>
      </trkpt>
      <trkpt lat="45.1029" lon="5.89135">
        <ele>1678</ele>
        <time>2021-08-11T15:36:05+02:00</time>
      </trkpt>
      <trkpt lat="45.10287" lon="5.8911">
        <ele>1677</ele>
        <time>2021-08-11T15:36:21+02:00</time>
      </trkpt>
      <trkpt lat="45.10285" lon="5.89087">
        <ele>1675</ele>
        <time>2021-08-11T15:36:34+02:00</time>
      </trkpt>
      <trkpt lat="45.10282" lon="5.89074">
        <ele>1673</ele>
        <time>2021-08-11T15:36:43+02:00</time>
      </trkpt>
      <trkpt lat="45.10286" lon="5.89054">
        <ele>1672</ele>
        <time>2021-08-11T15:36:56+02:00</time>
      </trkpt>
      <trkpt lat="45.10286" lon="5.89038">
        <ele>1671</ele>
        <time>2021-08-11T15:37:05+02:00</time>
      </trkpt>
      <trkpt lat="45.10291" lon="5.89023">
        <ele>1670</ele>
        <time>2021-08-11T15:37:18+02:00</time>
      </trkpt>
      <trkpt lat="45.10293" lon="5.89008">
        <ele>1669</ele>
        <time>2021-08-11T15:37:28+02:00</time>
      </trkpt>
      <trkpt lat="45.10292" lon="5.89">
        <ele>1669</ele>
      </trkpt>
      <trkpt lat="45.1029" lon="5.88986">
        <ele>1667</ele>
        <time>2021-08-11T15:37:39+02:00</time>
      </trkpt>
      <trkpt lat="45.10292" lon="5.8896">
        <ele>1666</ele>
        <time>2021-08-11T15:37:52+02:00</time>
      </trkpt>
      <trkpt lat="45.10288" lon="5.88938">
        <ele>1664</ele>
        <time>2021-08-11T15:38:04+02:00</time>
      </trkpt>
      <trkpt lat="45.10284" lon="5.88918">
        <ele>1662</ele>
        <time>2021-08-11T15:38:15+02:00</time>
      </trkpt>
      <trkpt lat="45.10276" lon="5.88898">
        <ele>1659</ele>
        <time>2021-08-11T15:38:26+02:00</time>
      </trkpt>
      <trkpt lat="45.1027" lon="5.88876">
        <ele>1658</ele>
        <time>2021-08-11T15:38:42+02:00</time>
      </trkpt>
      <trkpt lat="45.10261" lon="5.88855">
        <ele>1656</ele>
        <time>2021-08-11T15:38:51+02:00</time>
      </trkpt>
      <trkpt lat="45.10251" lon="5.88837">
        <ele>1655</ele>
      </trkpt>
      <trkpt lat="45.1025" lon="5.88816">
        <ele>1656</ele>
        <time>2021-08-11T15:39:06+02:00</time>
      </trkpt>
      <trkpt lat="45.1024" lon="5.88795">
        <ele>1656</ele>
        <time>2021-08-11T15:39:37+02:00</time>
      </trkpt>
      <trkpt lat="45.10237" lon="5.88772">
        <ele>1656</ele>
        <time>2021-08-11T15:39:48+02:00</time>
      </trkpt>
      <trkpt lat="45.10233" lon="5.88755">
        <ele>1657</ele>
        <time>2021-08-11T15:40:00+02:00</time>
      </trkpt>
      <trkpt lat="45.10228" lon="5.88733">
        <ele>1657</ele>
        <time>2021-08-11T15:40:10+02:00</time>
      </trkpt>
      <trkpt lat="45.10218" lon="5.88714">
        <ele>1656</ele>
        <time>2021-08-11T15:40:28+02:00</time>
      </trkpt>
      <trkpt lat="45.10208" lon="5.88696">
        <ele>1655</ele>
        <time>2021-08-11T15:40:37+02:00</time>
      </trkpt>
      <trkpt lat="45.10199" lon="5.88678">
        <ele>1654</ele>
        <time>2021-08-11T15:40:49+02:00</time>
      </trkpt>
      <trkpt lat="45.1019" lon="5.88656">
        <ele>1653</ele>
        <time>2021-08-11T15:41:02+02:00</time>
      </trkpt>
      <trkpt lat="45.10183" lon="5.88638">
        <ele>1653</ele>
        <time>2021-08-11T15:41:15+02:00</time>
      </trkpt>
      <trkpt lat="45.10178" lon="5.8862">
        <ele>1651</ele>
        <time>2021-08-11T15:41:26+02:00</time>
      </trkpt>
      <trkpt lat="45.10171" lon="5.88606">
        <ele>1650</ele>
        <time>2021-08-11T15:41:39+02:00</time>
      </trkpt>
      <trkpt lat="45.10162" lon="5.88583">
        <ele>1648</ele>
      </trkpt>
      <trkpt lat="45.10156" lon="5.88558">
        <ele>1648</ele>
      </trkpt>
      <trkpt lat="45.10148" lon="5.88534">
        <ele>1648</ele>
      </trkpt>
      <trkpt lat="45.10143" lon="5.88516">
        <ele>1647</ele>
      </trkpt>
      <trkpt lat="45.10136" lon="5.88486">
        <ele>1647</ele>
      </trkpt>
      <trkpt lat="45.10135" lon="5.8847">
        <ele>1647</ele>
      </trkpt>
      <trkpt lat="45.10132" lon="5.8847">
        <ele>1647</ele>
      </trkpt>
      <trkpt lat="45.10128" lon="5.88469">
        <ele>1647</ele>
      </trkpt>
      <trkpt lat="45.10129" lon="5.88482">
        <ele>1646</ele>
      </trkpt>
      <trkpt lat="45.10129" lon="5.88493">
        <ele>1646</ele>
      </trkpt>
      <trkpt lat="45.1013" lon="5.88497">
        <ele>1646</ele>
      </trkpt>
      <trkpt lat="45.1013" lon="5.88506">
        <ele>1646</ele>
      </trkpt>
      <trkpt lat="45.1013" lon="5.88522">
        <ele>1645</ele>
      </trkpt>
      <trkpt lat="45.10129" lon="5.88545">
        <ele>1645</ele>
      </trkpt>
      <trkpt lat="45.10129" lon="5.88568">
        <ele>1644</ele>
      </trkpt>
      <trkpt lat="45.10126" lon="5.88596">
        <ele>1643</ele>
      </trkpt>
      <trkpt lat="45.10125" lon="5.88619">
        <ele>1643</ele>
      </trkpt>
      <trkpt lat="45.10125" lon="5.88644">
        <ele>1642</ele>
      </trkpt>
      <trkpt lat="45.10126" lon="5.88672">
        <ele>1640</ele>
      </trkpt>
      <trkpt lat="45.1013" lon="5.88695">
        <ele>1640</ele>
      </trkpt>
      <trkpt lat="45.10135" lon="5.88716">
        <ele>1640</ele>
      </trkpt>
      <trkpt lat="45.10134" lon="5.88722">
        <ele>1639</ele>
      </trkpt>
      <trkpt lat="45.10133" lon="5.88729">
        <ele>1639</ele>
      </trkpt>
      <trkpt lat="45.10128" lon="5.88739">
        <ele>1639</ele>
      </trkpt>
      <trkpt lat="45.10115" lon="5.88743">
        <ele>1638</ele>
        <time>2021-08-11T15:41:56+02:00</time>
      </trkpt>
      <trkpt lat="45.10086" lon="5.88749">
        <ele>1634</ele>
      </trkpt>
      <trkpt lat="45.10072" lon="5.88738">
        <ele>1633</ele>
      </trkpt>
      <trkpt lat="45.10064" lon="5.8873">
        <ele>1632</ele>
      </trkpt>
      <trkpt lat="45.10055" lon="5.88718">
        <ele>1631</ele>
      </trkpt>
      <trkpt lat="45.10048" lon="5.88707">
        <ele>1632</ele>
      </trkpt>
      <trkpt lat="45.10038" lon="5.88695">
        <ele>1632</ele>
      </trkpt>
      <trkpt lat="45.10029" lon="5.88679">
        <ele>1631</ele>
      </trkpt>
      <trkpt lat="45.10021" lon="5.88665">
        <ele>1631</ele>
      </trkpt>
      <trkpt lat="45.10016" lon="5.88655">
        <ele>1632</ele>
      </trkpt>
      <trkpt lat="45.10012" lon="5.88644">
        <ele>1631</ele>
      </trkpt>
      <trkpt lat="45.10005" lon="5.88633">
        <ele>1631</ele>
      </trkpt>
      <trkpt lat="45.09999" lon="5.88625">
        <ele>1631</ele>
      </trkpt>
      <trkpt lat="45.09991" lon="5.88617">
        <ele>1631</ele>
      </trkpt>
      <trkpt lat="45.09983" lon="5.88608">
        <ele>1631</ele>
      </trkpt>
      <trkpt lat="45.09973" lon="5.88596">
        <ele>1630</ele>
      </trkpt>
      <trkpt lat="45.09965" lon="5.88585">
        <ele>1630</ele>
      </trkpt>
      <trkpt lat="45.09955" lon="5.88573">
        <ele>1630</ele>
      </trkpt>
      <trkpt lat="45.09947" lon="5.88566">
        <ele>1630</ele>
      </trkpt>
      <trkpt lat="45.09938" lon="5.88552">
        <ele>1629</ele>
      </trkpt>
      <trkpt lat="45.09931" lon="5.88541">
        <ele>1629</ele>
      </trkpt>
      <trkpt lat="45.09924" lon="5.88528">
        <ele>1627</ele>
      </trkpt>
      <trkpt lat="45.09916" lon="5.88519">
        <ele>1626</ele>
      </trkpt>
      <trkpt lat="45.09907" lon="5.88512">
        <ele>1627</ele>
      </trkpt>
      <trkpt lat="45.09901" lon="5.88508">
        <ele>1626</ele>
      </trkpt>
      <trkpt lat="45.09888" lon="5.88501">
        <ele>1626</ele>
      </trkpt>
      <trkpt lat="45.09876" lon="5.88495">
        <ele>1627</ele>
      </trkpt>
      <trkpt lat="45.09867" lon="5.88487">
        <ele>1627</ele>
      </trkpt>
      <trkpt lat="45.09857" lon="5.8848">
        <ele>1626</ele>
      </trkpt>
      <trkpt lat="45.09847" lon="5.88473">
        <ele>1626</ele>
      </trkpt>
      <trkpt lat="45.09839" lon="5.88469">
        <ele>1625</ele>
      </trkpt>
      <trkpt lat="45.09834" lon="5.88465">
        <ele>1625</ele>
      </trkpt>
      <trkpt lat="45.09818" lon="5.88455">
        <ele>1622</ele>
      </trkpt>
      <trkpt lat="45.09801" lon="5.8845">
        <ele>1621</ele>
      </trkpt>
      <trkpt lat="45.09786" lon="5.88448">
        <ele>1621</ele>
      </trkpt>
      <trkpt lat="45.09772" lon="5.88448">
        <ele>1622</ele>
      </trkpt>
      <trkpt lat="45.0976" lon="5.88448">
        <ele>1622</ele>
      </trkpt>
      <trkpt lat="45.09744" lon="5.88445">
        <ele>1622</ele>
      </trkpt>
      <trkpt lat="45.09728" lon="5.88442">
        <ele>1623</ele>
      </trkpt>
      <trkpt lat="45.09711" lon="5.88442">
        <ele>1624</ele>
      </trkpt>
      <trkpt lat="45.097" lon="5.88432">
        <ele>1624</ele>
      </trkpt>
      <trkpt lat="45.09692" lon="5.88413">
        <ele>1623</ele>
      </trkpt>
      <trkpt lat="45.09683" lon="5.88399">
        <ele>1621</ele>
      </trkpt>
      <trkpt lat="45.09674" lon="5.88387">
        <ele>1620</ele>
      </trkpt>
      <trkpt lat="45.09663" lon="5.88377">
        <ele>1619</ele>
      </trkpt>
      <trkpt lat="45.09652" lon="5.88367">
        <ele>1619</ele>
      </trkpt>
      <trkpt lat="45.09641" lon="5.88359">
        <ele>1619</ele>
      </trkpt>
      <trkpt lat="45.09632" lon="5.8835">
        <ele>1619</ele>
      </trkpt>
      <trkpt lat="45.09622" lon="5.88335">
        <ele>1618</ele>
      </trkpt>
      <trkpt lat="45.09611" lon="5.88319">
        <ele>1617</ele>
      </trkpt>
      <trkpt lat="45.09594" lon="5.88309">
        <ele>1618</ele>
      </trkpt>
      <trkpt lat="45.09577" lon="5.88299">
        <ele>1618</ele>
      </trkpt>
      <trkpt lat="45.09564" lon="5.8829">
        <ele>1617</ele>
      </trkpt>
      <trkpt lat="45.0955" lon="5.88282">
        <ele>1616</ele>
      </trkpt>
      <trkpt lat="45.09538" lon="5.88272">
        <ele>1615</ele>
      </trkpt>
      <trkpt lat="45.09528" lon="5.88266">
        <ele>1614</ele>
      </trkpt>
      <trkpt lat="45.09504" lon="5.88249">
        <ele>1609</ele>
      </trkpt>
      <trkpt lat="45.0949" lon="5.88249">
        <ele>1608</ele>
      </trkpt>
      <trkpt lat="45.0948" lon="5.88244">
        <ele>1607</ele>
      </trkpt>
      <trkpt lat="45.09467" lon="5.88238">
        <ele>1606</ele>
      </trkpt>
      <trkpt lat="45.09457" lon="5.88229">
        <ele>1605</ele>
      </trkpt>
      <trkpt lat="45.09446" lon="5.88218">
        <ele>1603</ele>
      </trkpt>
      <trkpt lat="45.09437" lon="5.88199">
        <ele>1600</ele>
      </trkpt>
      <trkpt lat="45.09434" lon="5.88174">
        <ele>1599</ele>
      </trkpt>
      <trkpt lat="45.09431" lon="5.88157">
        <ele>1599</ele>
      </trkpt>
      <trkpt lat="45.09431" lon="5.88152">
        <ele>1600</ele>
      </trkpt>
      <trkpt lat="45.09432" lon="5.88147">
        <ele>1600</ele>
      </trkpt>
      <trkpt lat="45.09447" lon="5.88135">
        <ele>1602</ele>
      </trkpt>
      <trkpt lat="45.09453" lon="5.88129">
        <ele>1602</ele>
      </trkpt>
      <trkpt lat="45.09462" lon="5.88111">
        <ele>1602</ele>
      </trkpt>
      <trkpt lat="45.09474" lon="5.88083">
        <ele>1602</ele>
      </trkpt>
      <trkpt lat="45.09495" lon="5.88067">
        <ele>1605</ele>
      </trkpt>
      <trkpt lat="45.09502" lon="5.88059">
        <ele>1606</ele>
      </trkpt>
      <trkpt lat="45.09504" lon="5.88045">
        <ele>1607</ele>
      </trkpt>
      <trkpt lat="45.09497" lon="5.88035">
        <ele>1606</ele>
      </trkpt>
      <trkpt lat="45.09488" lon="5.88028">
        <ele>1606</ele>
      </trkpt>
      <trkpt lat="45.09481" lon="5.88018">
        <ele>1606</ele>
      </trkpt>
      <trkpt lat="45.09468" lon="5.88012">
        <ele>1606</ele>
      </trkpt>
      <trkpt lat="45.09459" lon="5.8801">
        <ele>1605</ele>
      </trkpt>
      <trkpt lat="45.09443" lon="5.8801">
        <ele>1604</ele>
      </trkpt>
      <trkpt lat="45.09429" lon="5.88011">
        <ele>1603</ele>
      </trkpt>
      <trkpt lat="45.09411" lon="5.88016">
        <ele>1602</ele>
      </trkpt>
      <trkpt lat="45.09396" lon="5.88016">
        <ele>1602</ele>
      </trkpt>
      <trkpt lat="45.09383" lon="5.88014">
        <ele>1603</ele>
      </trkpt>
      <trkpt lat="45.09368" lon="5.88005">
        <ele>1604</ele>
      </trkpt>
      <trkpt lat="45.0935" lon="5.87994">
        <ele>1605</ele>
      </trkpt>
      <trkpt lat="45.09333" lon="5.87988">
        <ele>1604</ele>
      </trkpt>
      <trkpt lat="45.09322" lon="5.87986">
        <ele>1603</ele>
      </trkpt>
      <trkpt lat="45.09307" lon="5.8798">
        <ele>1602</ele>
      </trkpt>
      <trkpt lat="45.09297" lon="5.87972">
        <ele>1601</ele>
      </trkpt>
      <trkpt lat="45.09286" lon="5.8796">
        <ele>1601</ele>
      </trkpt>
      <trkpt lat="45.09276" lon="5.87944">
        <ele>1601</ele>
      </trkpt>
      <trkpt lat="45.09269" lon="5.87926">
        <ele>1600</ele>
      </trkpt>
      <trkpt lat="45.09264" lon="5.87903">
        <ele>1600</ele>
      </trkpt>
      <trkpt lat="45.09259" lon="5.87878">
        <ele>1599</ele>
      </trkpt>
      <trkpt lat="45.09256" lon="5.87838">
        <ele>1602</ele>
      </trkpt>
      <trkpt lat="45.09252" lon="5.87819">
        <ele>1604</ele>
      </trkpt>
      <trkpt lat="45.09246" lon="5.87802">
        <ele>1606</ele>
      </trkpt>
      <trkpt lat="45.09238" lon="5.87778">
        <ele>1608</ele>
      </trkpt>
      <trkpt lat="45.09231" lon="5.87754">
        <ele>1611</ele>
      </trkpt>
      <trkpt lat="45.09224" lon="5.87734">
        <ele>1612</ele>
      </trkpt>
      <trkpt lat="45.09218" lon="5.87709">
        <ele>1614</ele>
      </trkpt>
      <trkpt lat="45.09206" lon="5.87687">
        <ele>1614</ele>
      </trkpt>
      <trkpt lat="45.09197" lon="5.87669">
        <ele>1614</ele>
      </trkpt>
      <trkpt lat="45.09188" lon="5.87648">
        <ele>1615</ele>
      </trkpt>
      <trkpt lat="45.09186" lon="5.87628">
        <ele>1617</ele>
      </trkpt>
      <trkpt lat="45.09187" lon="5.87614">
        <ele>1618</ele>
      </trkpt>
      <trkpt lat="45.09192" lon="5.87595">
        <ele>1622</ele>
      </trkpt>
      <trkpt lat="45.09186" lon="5.87576">
        <ele>1625</ele>
      </trkpt>
      <trkpt lat="45.09178" lon="5.87559">
        <ele>1627</ele>
      </trkpt>
      <trkpt lat="45.09166" lon="5.87549">
        <ele>1626</ele>
      </trkpt>
      <trkpt lat="45.09151" lon="5.87537">
        <ele>1626</ele>
      </trkpt>
      <trkpt lat="45.09138" lon="5.87521">
        <ele>1626</ele>
      </trkpt>
      <trkpt lat="45.09128" lon="5.87508">
        <ele>1629</ele>
      </trkpt>
      <trkpt lat="45.09123" lon="5.87491">
        <ele>1631</ele>
      </trkpt>
      <trkpt lat="45.09119" lon="5.87462">
        <ele>1632</ele>
      </trkpt>
      <trkpt lat="45.09115" lon="5.87429">
        <ele>1631</ele>
      </trkpt>
      <trkpt lat="45.09111" lon="5.87402">
        <ele>1628</ele>
      </trkpt>
      <trkpt lat="45.09105" lon="5.87354">
        <ele>1620</ele>
      </trkpt>
      <trkpt lat="45.09101" lon="5.87327">
        <ele>1618</ele>
      </trkpt>
      <trkpt lat="45.09093" lon="5.87301">
        <ele>1617</ele>
      </trkpt>
      <trkpt lat="45.09085" lon="5.87275">
        <ele>1615</ele>
      </trkpt>
      <trkpt lat="45.09077" lon="5.87252">
        <ele>1613</ele>
      </trkpt>
      <trkpt lat="45.09063" lon="5.87218">
        <ele>1611</ele>
      </trkpt>
      <trkpt lat="45.09057" lon="5.87192">
        <ele>1609</ele>
      </trkpt>
      <trkpt lat="45.09051" lon="5.87166">
        <ele>1608</ele>
      </trkpt>
      <trkpt lat="45.0905" lon="5.87129">
        <ele>1606</ele>
      </trkpt>
      <trkpt lat="45.09054" lon="5.87125">
        <ele>1604</ele>
      </trkpt>
      <trkpt lat="45.09062" lon="5.87124">
        <ele>1605</ele>
      </trkpt>
      <trkpt lat="45.09077" lon="5.87121">
        <ele>1606</ele>
      </trkpt>
      <trkpt lat="45.09091" lon="5.87119">
        <ele>1608</ele>
      </trkpt>
      <trkpt lat="45.09108" lon="5.87117">
        <ele>1611</ele>
      </trkpt>
      <trkpt lat="45.09124" lon="5.87111">
        <ele>1611</ele>
      </trkpt>
      <trkpt lat="45.09142" lon="5.87099">
        <ele>1612</ele>
      </trkpt>
      <trkpt lat="45.09162" lon="5.87092">
        <ele>1614</ele>
      </trkpt>
      <trkpt lat="45.09174" lon="5.8708">
        <ele>1614</ele>
      </trkpt>
      <trkpt lat="45.09188" lon="5.87053">
        <ele>1614</ele>
      </trkpt>
      <trkpt lat="45.09201" lon="5.87031">
        <ele>1613</ele>
      </trkpt>
      <trkpt lat="45.09216" lon="5.87014">
        <ele>1613</ele>
      </trkpt>
      <trkpt lat="45.09235" lon="5.87003">
        <ele>1612</ele>
      </trkpt>
      <trkpt lat="45.09253" lon="5.86994">
        <ele>1610</ele>
      </trkpt>
      <trkpt lat="45.09265" lon="5.86975">
        <ele>1606</ele>
      </trkpt>
      <trkpt lat="45.09279" lon="5.86965">
        <ele>1603</ele>
      </trkpt>
      <trkpt lat="45.09291" lon="5.86961">
        <ele>1603</ele>
      </trkpt>
      <trkpt lat="45.09312" lon="5.86963">
        <ele>1603</ele>
      </trkpt>
      <trkpt lat="45.09332" lon="5.86967">
        <ele>1602</ele>
      </trkpt>
      <trkpt lat="45.09347" lon="5.86971">
        <ele>1601</ele>
      </trkpt>
      <trkpt lat="45.09355" lon="5.8698">
        <ele>1602</ele>
      </trkpt>
      <trkpt lat="45.09368" lon="5.87004">
        <ele>1603</ele>
      </trkpt>
      <trkpt lat="45.09379" lon="5.87027">
        <ele>1603</ele>
      </trkpt>
      <trkpt lat="45.0939" lon="5.87049">
        <ele>1604</ele>
      </trkpt>
      <trkpt lat="45.09398" lon="5.87066">
        <ele>1606</ele>
      </trkpt>
      <trkpt lat="45.09405" lon="5.87081">
        <ele>1609</ele>
      </trkpt>
      <trkpt lat="45.09415" lon="5.87097">
        <ele>1612</ele>
      </trkpt>
      <trkpt lat="45.09425" lon="5.87111">
        <ele>1614</ele>
      </trkpt>
      <trkpt lat="45.09438" lon="5.87111">
        <ele>1613</ele>
      </trkpt>
      <trkpt lat="45.09452" lon="5.87108">
        <ele>1612</ele>
      </trkpt>
      <trkpt lat="45.09465" lon="5.87105">
        <ele>1611</ele>
      </trkpt>
      <trkpt lat="45.0948" lon="5.87108">
        <ele>1612</ele>
      </trkpt>
      <trkpt lat="45.09492" lon="5.87115">
        <ele>1612</ele>
      </trkpt>
      <trkpt lat="45.09505" lon="5.87125">
        <ele>1613</ele>
      </trkpt>
      <trkpt lat="45.09521" lon="5.87145">
        <ele>1614</ele>
      </trkpt>
      <trkpt lat="45.09535" lon="5.87165">
        <ele>1615</ele>
      </trkpt>
      <trkpt lat="45.09542" lon="5.87175">
        <ele>1615</ele>
      </trkpt>
      <trkpt lat="45.09549" lon="5.87188">
        <ele>1616</ele>
      </trkpt>
      <trkpt lat="45.09555" lon="5.872">
        <ele>1616</ele>
      </trkpt>
      <trkpt lat="45.09561" lon="5.87215">
        <ele>1618</ele>
      </trkpt>
      <trkpt lat="45.09569" lon="5.87226">
        <ele>1621</ele>
      </trkpt>
      <trkpt lat="45.09577" lon="5.87236">
        <ele>1622</ele>
      </trkpt>
      <trkpt lat="45.09589" lon="5.87246">
        <ele>1623</ele>
      </trkpt>
      <trkpt lat="45.096" lon="5.8725">
        <ele>1625</ele>
      </trkpt>
      <trkpt lat="45.0961" lon="5.87243">
        <ele>1628</ele>
      </trkpt>
      <trkpt lat="45.09622" lon="5.87226">
        <ele>1629</ele>
      </trkpt>
      <trkpt lat="45.09637" lon="5.87225">
        <ele>1629</ele>
      </trkpt>
      <trkpt lat="45.09649" lon="5.87227">
        <ele>1628</ele>
      </trkpt>
      <trkpt lat="45.09667" lon="5.87235">
        <ele>1625</ele>
      </trkpt>
      <trkpt lat="45.09683" lon="5.8723">
        <ele>1621</ele>
      </trkpt>
      <trkpt lat="45.09694" lon="5.87232">
        <ele>1618</ele>
      </trkpt>
      <trkpt lat="45.09703" lon="5.87242">
        <ele>1618</ele>
      </trkpt>
      <trkpt lat="45.09714" lon="5.8725">
        <ele>1618</ele>
      </trkpt>
      <trkpt lat="45.0973" lon="5.87257">
        <ele>1619</ele>
      </trkpt>
      <trkpt lat="45.09743" lon="5.8725">
        <ele>1620</ele>
      </trkpt>
      <trkpt lat="45.09753" lon="5.87247">
        <ele>1620</ele>
      </trkpt>
      <trkpt lat="45.09746" lon="5.87226">
        <ele>1619</ele>
      </trkpt>
      <trkpt lat="45.09741" lon="5.87209">
        <ele>1618</ele>
      </trkpt>
      <trkpt lat="45.09739" lon="5.87191">
        <ele>1618</ele>
      </trkpt>
      <trkpt lat="45.09744" lon="5.87158">
        <ele>1618</ele>
      </trkpt>
      <trkpt lat="45.09753" lon="5.87134">
        <ele>1618</ele>
      </trkpt>
      <trkpt lat="45.09763" lon="5.87115">
        <ele>1619</ele>
      </trkpt>
      <trkpt lat="45.09771" lon="5.87095">
        <ele>1620</ele>
      </trkpt>
      <trkpt lat="45.0978" lon="5.87078">
        <ele>1622</ele>
      </trkpt>
      <trkpt lat="45.09789" lon="5.87059">
        <ele>1622</ele>
      </trkpt>
      <trkpt lat="45.09799" lon="5.8704">
        <ele>1621</ele>
      </trkpt>
      <trkpt lat="45.09806" lon="5.87023">
        <ele>1619</ele>
      </trkpt>
      <trkpt lat="45.09815" lon="5.87009">
        <ele>1616</ele>
      </trkpt>
      <trkpt lat="45.09825" lon="5.86999">
        <ele>1614</ele>
      </trkpt>
      <trkpt lat="45.09838" lon="5.86996">
        <ele>1614</ele>
      </trkpt>
      <trkpt lat="45.09848" lon="5.86998">
        <ele>1615</ele>
      </trkpt>
      <trkpt lat="45.0986" lon="5.86998">
        <ele>1617</ele>
      </trkpt>
      <trkpt lat="45.09869" lon="5.86989">
        <ele>1616</ele>
      </trkpt>
      <trkpt lat="45.09875" lon="5.86976">
        <ele>1615</ele>
      </trkpt>
      <trkpt lat="45.09884" lon="5.8696">
        <ele>1615</ele>
      </trkpt>
      <trkpt lat="45.09894" lon="5.86955">
        <ele>1616</ele>
      </trkpt>
      <trkpt lat="45.09905" lon="5.8695">
        <ele>1618</ele>
      </trkpt>
      <trkpt lat="45.09914" lon="5.86946">
        <ele>1619</ele>
      </trkpt>
      <trkpt lat="45.09924" lon="5.86934">
        <ele>1619</ele>
      </trkpt>
      <trkpt lat="45.09928" lon="5.8692">
        <ele>1618</ele>
      </trkpt>
      <trkpt lat="45.0993" lon="5.86909">
        <ele>1617</ele>
      </trkpt>
      <trkpt lat="45.09932" lon="5.86891">
        <ele>1617</ele>
      </trkpt>
      <trkpt lat="45.09939" lon="5.86866">
        <ele>1615</ele>
      </trkpt>
      <trkpt lat="45.09952" lon="5.86856">
        <ele>1615</ele>
      </trkpt>
      <trkpt lat="45.09957" lon="5.86832">
        <ele>1614</ele>
      </trkpt>
      <trkpt lat="45.09961" lon="5.86812">
        <ele>1613</ele>
      </trkpt>
      <trkpt lat="45.09963" lon="5.86791">
        <ele>1611</ele>
      </trkpt>
      <trkpt lat="45.09963" lon="5.86765">
        <ele>1610</ele>
      </trkpt>
      <trkpt lat="45.09963" lon="5.86759">
        <ele>1610</ele>
      </trkpt>
      <trkpt lat="45.09965" lon="5.86755">
        <ele>1609</ele>
      </trkpt>
      <trkpt lat="45.09975" lon="5.86765">
        <ele>1609</ele>
      </trkpt>
      <trkpt lat="45.0999" lon="5.86774">
        <ele>1608</ele>
      </trkpt>
      <trkpt lat="45.1001" lon="5.86785">
        <ele>1605</ele>
      </trkpt>
      <trkpt lat="45.1003" lon="5.86796">
        <ele>1602</ele>
      </trkpt>
      <trkpt lat="45.10051" lon="5.86788">
        <ele>1600</ele>
      </trkpt>
      <trkpt lat="45.10068" lon="5.86779">
        <ele>1599</ele>
      </trkpt>
      <trkpt lat="45.10085" lon="5.86764">
        <ele>1597</ele>
      </trkpt>
      <trkpt lat="45.10113" lon="5.86764">
        <ele>1598</ele>
      </trkpt>
      <trkpt lat="45.10131" lon="5.86763">
        <ele>1599</ele>
      </trkpt>
      <trkpt lat="45.10143" lon="5.86749">
        <ele>1597</ele>
      </trkpt>
      <trkpt lat="45.10165" lon="5.86725">
        <ele>1593</ele>
      </trkpt>
      <trkpt lat="45.10187" lon="5.8671">
        <ele>1594</ele>
      </trkpt>
      <trkpt lat="45.10208" lon="5.86696">
        <ele>1595</ele>
      </trkpt>
      <trkpt lat="45.10233" lon="5.86689">
        <ele>1597</ele>
      </trkpt>
      <trkpt lat="45.1026" lon="5.8669">
        <ele>1597</ele>
      </trkpt>
      <trkpt lat="45.10287" lon="5.86695">
        <ele>1596</ele>
      </trkpt>
      <trkpt lat="45.10309" lon="5.867">
        <ele>1596</ele>
      </trkpt>
      <trkpt lat="45.10335" lon="5.86698">
        <ele>1596</ele>
      </trkpt>
      <trkpt lat="45.10353" lon="5.86699">
        <ele>1597</ele>
      </trkpt>
      <trkpt lat="45.10364" lon="5.86693">
        <ele>1597</ele>
      </trkpt>
      <trkpt lat="45.10387" lon="5.86652">
        <ele>1593</ele>
      </trkpt>
      <trkpt lat="45.10404" lon="5.86618">
        <ele>1591</ele>
      </trkpt>
      <trkpt lat="45.1043" lon="5.86589">
        <ele>1592</ele>
      </trkpt>
      <trkpt lat="45.10457" lon="5.86573">
        <ele>1594</ele>
      </trkpt>
      <trkpt lat="45.10487" lon="5.86559">
        <ele>1596</ele>
      </trkpt>
      <trkpt lat="45.10515" lon="5.86544">
        <ele>1595</ele>
      </trkpt>
      <trkpt lat="45.10543" lon="5.86536">
        <ele>1597</ele>
      </trkpt>
      <trkpt lat="45.10565" lon="5.8653">
        <ele>1598</ele>
      </trkpt>
      <trkpt lat="45.10592" lon="5.86534">
        <ele>1598</ele>
      </trkpt>
      <trkpt lat="45.10621" lon="5.86535">
        <ele>1597</ele>
      </trkpt>
      <trkpt lat="45.1065" lon="5.86538">
        <ele>1599</ele>
      </trkpt>
      <trkpt lat="45.1068" lon="5.86534">
        <ele>1599</ele>
      </trkpt>
      <trkpt lat="45.10703" lon="5.86541">
        <ele>1601</ele>
      </trkpt>
      <trkpt lat="45.10733" lon="5.86554">
        <ele>1604</ele>
      </trkpt>
      <trkpt lat="45.10763" lon="5.86595">
        <ele>1610</ele>
      </trkpt>
      <trkpt lat="45.10783" lon="5.86648">
        <ele>1614</ele>
      </trkpt>
      <trkpt lat="45.10792" lon="5.86695">
        <ele>1615</ele>
      </trkpt>
      <trkpt lat="45.10819" lon="5.86725">
        <ele>1616</ele>
      </trkpt>
      <trkpt lat="45.10865" lon="5.86718">
        <ele>1616</ele>
      </trkpt>
      <trkpt lat="45.10904" lon="5.86723">
        <ele>1614</ele>
      </trkpt>
      <trkpt lat="45.10938" lon="5.8675">
        <ele>1614</ele>
      </trkpt>
      <trkpt lat="45.10969" lon="5.86789">
        <ele>1616</ele>
      </trkpt>
      <trkpt lat="45.10996" lon="5.86816">
        <ele>1617</ele>
      </trkpt>
      <trkpt lat="45.11021" lon="5.86841">
        <ele>1619</ele>
      </trkpt>
      <trkpt lat="45.11047" lon="5.86869">
        <ele>1622</ele>
      </trkpt>
      <trkpt lat="45.11065" lon="5.86888">
        <ele>1623</ele>
      </trkpt>
      <trkpt lat="45.11078" lon="5.86895">
        <ele>1623</ele>
      </trkpt>
      <trkpt lat="45.11085" lon="5.86886">
        <ele>1622</ele>
      </trkpt>
      <trkpt lat="45.11093" lon="5.86866">
        <ele>1621</ele>
      </trkpt>
      <trkpt lat="45.11101" lon="5.86823">
        <ele>1614</ele>
      </trkpt>
      <trkpt lat="45.11104" lon="5.86817">
        <ele>1614</ele>
      </trkpt>
      <trkpt lat="45.11118" lon="5.86821">
        <ele>1616</ele>
      </trkpt>
      <trkpt lat="45.11125" lon="5.86855">
        <ele>1620</ele>
      </trkpt>
      <trkpt lat="45.11124" lon="5.86879">
        <ele>1624</ele>
      </trkpt>
      <trkpt lat="45.11147" lon="5.86933">
        <ele>1630</ele>
      </trkpt>
      <trkpt lat="45.1116" lon="5.86985">
        <ele>1636</ele>
      </trkpt>
      <trkpt lat="45.11184" lon="5.87032">
        <ele>1641</ele>
      </trkpt>
      <trkpt lat="45.1121" lon="5.87072">
        <ele>1643</ele>
      </trkpt>
      <trkpt lat="45.11224" lon="5.87093">
        <ele>1644</ele>
      </trkpt>
      <trkpt lat="45.11235" lon="5.87115">
        <ele>1645</ele>
      </trkpt>
      <trkpt lat="45.11255" lon="5.87153">
        <ele>1648</ele>
      </trkpt>
      <trkpt lat="45.11275" lon="5.8719">
        <ele>1653</ele>
      </trkpt>
      <trkpt lat="45.11287" lon="5.87213">
        <ele>1657</ele>
      </trkpt>
      <trkpt lat="45.11294" lon="5.87218">
        <ele>1658</ele>
      </trkpt>
      <trkpt lat="45.113" lon="5.8723">
        <ele>1660</ele>
      </trkpt>
      <trkpt lat="45.11312" lon="5.87245">
        <ele>1661</ele>
      </trkpt>
      <trkpt lat="45.11329" lon="5.87241">
        <ele>1659</ele>
      </trkpt>
      <trkpt lat="45.1136" lon="5.87235">
        <ele>1654</ele>
      </trkpt>
      <trkpt lat="45.11378" lon="5.87235">
        <ele>1655</ele>
      </trkpt>
      <trkpt lat="45.11396" lon="5.87228">
        <ele>1655</ele>
      </trkpt>
      <trkpt lat="45.11431" lon="5.87223">
        <ele>1656</ele>
      </trkpt>
      <trkpt lat="45.11469" lon="5.87221">
        <ele>1654</ele>
      </trkpt>
      <trkpt lat="45.11484" lon="5.87214">
        <ele>1654</ele>
      </trkpt>
      <trkpt lat="45.11496" lon="5.87199">
        <ele>1652</ele>
      </trkpt>
      <trkpt lat="45.1152" lon="5.87148">
        <ele>1649</ele>
      </trkpt>
      <trkpt lat="45.11544" lon="5.87138">
        <ele>1652</ele>
      </trkpt>
      <trkpt lat="45.11566" lon="5.87151">
        <ele>1657</ele>
      </trkpt>
      <trkpt lat="45.11572" lon="5.87156">
        <ele>1658</ele>
      </trkpt>
      <trkpt lat="45.11575" lon="5.87165">
        <ele>1661</ele>
      </trkpt>
      <trkpt lat="45.11533" lon="5.87181">
        <ele>1660</ele>
      </trkpt>
      <trkpt lat="45.11512" lon="5.87237">
        <ele>1666</ele>
      </trkpt>
      <trkpt lat="45.11502" lon="5.87261">
        <ele>1668</ele>
      </trkpt>
      <trkpt lat="45.11495" lon="5.87274">
        <ele>1671</ele>
      </trkpt>
      <trkpt lat="45.11485" lon="5.87284">
        <ele>1672</ele>
      </trkpt>
      <trkpt lat="45.11454" lon="5.87302">
        <ele>1674</ele>
      </trkpt>
      <trkpt lat="45.11444" lon="5.87323">
        <ele>1678</ele>
      </trkpt>
      <trkpt lat="45.11433" lon="5.87344">
        <ele>1681</ele>
      </trkpt>
      <trkpt lat="45.11398" lon="5.87367">
        <ele>1684</ele>
      </trkpt>
      <trkpt lat="45.11355" lon="5.87386">
        <ele>1688</ele>
      </trkpt>
      <trkpt lat="45.11317" lon="5.87401">
        <ele>1692</ele>
      </trkpt>
      <trkpt lat="45.11289" lon="5.87402">
        <ele>1695</ele>
      </trkpt>
      <trkpt lat="45.11266" lon="5.87407">
        <ele>1699</ele>
      </trkpt>
      <trkpt lat="45.11242" lon="5.87406">
        <ele>1702</ele>
      </trkpt>
      <trkpt lat="45.11218" lon="5.87402">
        <ele>1703</ele>
      </trkpt>
      <trkpt lat="45.11198" lon="5.87399">
        <ele>1704</ele>
      </trkpt>
      <trkpt lat="45.11179" lon="5.87417">
        <ele>1707</ele>
      </trkpt>
      <trkpt lat="45.11162" lon="5.87444">
        <ele>1710</ele>
      </trkpt>
      <trkpt lat="45.11159" lon="5.87473">
        <ele>1717</ele>
      </trkpt>
      <trkpt lat="45.11138" lon="5.87474">
        <ele>1713</ele>
      </trkpt>
      <trkpt lat="45.11124" lon="5.87473">
        <ele>1712</ele>
      </trkpt>
      <trkpt lat="45.11101" lon="5.87501">
        <ele>1716</ele>
      </trkpt>
      <trkpt lat="45.11085" lon="5.87499">
        <ele>1716</ele>
      </trkpt>
      <trkpt lat="45.1108" lon="5.87506">
        <ele>1718</ele>
      </trkpt>
      <trkpt lat="45.1108" lon="5.87513">
        <ele>1719</ele>
      </trkpt>
      <trkpt lat="45.1108" lon="5.87541">
        <ele>1723</ele>
      </trkpt>
      <trkpt lat="45.11066" lon="5.87551">
        <ele>1727</ele>
      </trkpt>
      <trkpt lat="45.11054" lon="5.87563">
        <ele>1731</ele>
      </trkpt>
      <trkpt lat="45.11043" lon="5.87574">
        <ele>1734</ele>
      </trkpt>
      <trkpt lat="45.11042" lon="5.8759">
        <ele>1737</ele>
      </trkpt>
      <trkpt lat="45.1104" lon="5.87607">
        <ele>1738</ele>
      </trkpt>
      <trkpt lat="45.11036" lon="5.87621">
        <ele>1740</ele>
      </trkpt>
      <trkpt lat="45.11032" lon="5.87636">
        <ele>1742</ele>
      </trkpt>
      <trkpt lat="45.11025" lon="5.87645">
        <ele>1744</ele>
      </trkpt>
      <trkpt lat="45.11016" lon="5.87647">
        <ele>1746</ele>
      </trkpt>
      <trkpt lat="45.11006" lon="5.87651">
        <ele>1748</ele>
      </trkpt>
      <trkpt lat="45.11" lon="5.87663">
        <ele>1750</ele>
      </trkpt>
      <trkpt lat="45.11001" lon="5.87677">
        <ele>1751</ele>
      </trkpt>
      <trkpt lat="45.11005" lon="5.87689">
        <ele>1751</ele>
      </trkpt>
      <trkpt lat="45.11005" lon="5.87689">
        <ele>1751</ele>
      </trkpt>
      <trkpt lat="45.11012" lon="5.87703">
        <ele>1751</ele>
      </trkpt>
      <trkpt lat="45.11019" lon="5.87717">
        <ele>1751</ele>
      </trkpt>
      <trkpt lat="45.11025" lon="5.87733">
        <ele>1752</ele>
      </trkpt>
      <trkpt lat="45.11034" lon="5.8775">
        <ele>1753</ele>
      </trkpt>
      <trkpt lat="45.11042" lon="5.87761">
        <ele>1755</ele>
      </trkpt>
      <trkpt lat="45.11052" lon="5.87774">
        <ele>1758</ele>
      </trkpt>
      <trkpt lat="45.11061" lon="5.87784">
        <ele>1760</ele>
      </trkpt>
      <trkpt lat="45.1107" lon="5.87794">
        <ele>1761</ele>
      </trkpt>
      <trkpt lat="45.11079" lon="5.87806">
        <ele>1763</ele>
      </trkpt>
      <trkpt lat="45.11089" lon="5.87813">
        <ele>1764</ele>
      </trkpt>
      <trkpt lat="45.111" lon="5.87827">
        <ele>1766</ele>
      </trkpt>
      <trkpt lat="45.11111" lon="5.87836">
        <ele>1767</ele>
      </trkpt>
      <trkpt lat="45.11122" lon="5.8785">
        <ele>1770</ele>
      </trkpt>
      <trkpt lat="45.11131" lon="5.87861">
        <ele>1772</ele>
      </trkpt>
      <trkpt lat="45.11144" lon="5.87871">
        <ele>1774</ele>
      </trkpt>
      <trkpt lat="45.11156" lon="5.87876">
        <ele>1775</ele>
      </trkpt>
      <trkpt lat="45.11167" lon="5.8788">
        <ele>1776</ele>
      </trkpt>
      <trkpt lat="45.11181" lon="5.8788">
        <ele>1777</ele>
      </trkpt>
      <trkpt lat="45.11192" lon="5.87876">
        <ele>1777</ele>
      </trkpt>
      <trkpt lat="45.11202" lon="5.87872">
        <ele>1777</ele>
      </trkpt>
      <trkpt lat="45.1121" lon="5.87868">
        <ele>1778</ele>
      </trkpt>
      <trkpt lat="45.11224" lon="5.87857">
        <ele>1780</ele>
        <time>2021-08-11T16:28:28+02:00</time>
      </trkpt>
    </trkseg>
  </trk>
</gpx>